createdAt,value
2022-10-03T00:00:12.079Z,14.31
2022-10-03T00:01:12.066Z,14.32
2022-10-03T00:02:12.098Z,14.32
2022-10-03T00:03:12.117Z,14.32
2022-10-03T00:04:12.029Z,14.32
2022-10-03T00:05:12.011Z,14.32
2022-10-03T00:06:12.002Z,14.32
2022-10-03T00:07:11.985Z,14.32
2022-10-03T00:08:11.975Z,14.32
2022-10-03T00:09:11.959Z,14.32
2022-10-03T00:10:11.947Z,14.34
2022-10-03T00:11:11.933Z,14.34
2022-10-03T00:12:11.922Z,14.32
2022-10-03T00:13:11.908Z,14.31
2022-10-03T00:14:11.917Z,14.32
2022-10-03T00:15:11.879Z,14.31
2022-10-03T00:16:11.926Z,14.32
2022-10-03T00:17:11.854Z,14.34
2022-10-03T00:18:11.842Z,14.34
2022-10-03T00:19:11.828Z,14.35
2022-10-03T00:20:11.816Z,14.34
2022-10-03T00:21:11.801Z,14.32
2022-10-03T00:22:11.788Z,14.35
2022-10-03T00:23:11.774Z,14.34
2022-10-03T00:24:11.765Z,14.32
2022-10-03T00:25:11.749Z,14.34
2022-10-03T00:26:11.736Z,14.32
2022-10-03T00:27:11.722Z,14.34
2022-10-03T00:28:11.749Z,14.32
2022-10-03T00:29:11.696Z,14.31
2022-10-03T00:30:11.709Z,14.32
2022-10-03T00:31:11.728Z,14.32
2022-10-03T00:32:11.657Z,14.34
2022-10-03T00:33:11.643Z,14.32
2022-10-03T00:34:11.631Z,14.32
2022-10-03T00:35:11.617Z,14.32
2022-10-03T00:36:11.607Z,14.32
2022-10-03T00:37:11.590Z,14.31
2022-10-03T00:38:11.580Z,14.32
2022-10-03T00:39:11.564Z,14.31
2022-10-03T00:40:11.552Z,14.32
2022-10-03T00:41:11.537Z,14.31
2022-10-03T00:42:11.526Z,14.31
2022-10-03T00:43:11.512Z,14.32
2022-10-03T00:44:11.499Z,14.31
2022-10-03T00:45:11.485Z,14.32
2022-10-03T00:46:11.571Z,14.32
2022-10-03T00:47:11.458Z,14.32
2022-10-03T00:48:11.452Z,14.31
2022-10-03T00:49:11.431Z,14.31
2022-10-03T00:50:11.426Z,14.32
2022-10-03T00:51:11.405Z,14.31
2022-10-03T00:52:11.394Z,14.31
2022-10-03T00:53:11.383Z,14.29
2022-10-03T00:54:11.368Z,14.29
2022-10-03T00:55:11.352Z,14.32
2022-10-03T00:56:11.339Z,14.31
2022-10-03T00:57:11.327Z,14.31
2022-10-03T00:58:11.414Z,14.29
2022-10-03T00:59:11.299Z,14.31
2022-10-03T01:00:11.290Z,14.31
2022-10-03T01:01:11.326Z,14.29
2022-10-03T01:02:11.348Z,14.29
2022-10-03T01:03:11.247Z,14.29
2022-10-03T01:04:11.235Z,14.29
2022-10-03T01:05:11.220Z,14.31
2022-10-03T01:06:11.208Z,14.29
2022-10-03T01:07:11.193Z,14.28
2022-10-03T01:08:11.185Z,14.29
2022-10-03T01:09:11.167Z,14.29
2022-10-03T01:10:11.155Z,14.29
2022-10-03T01:11:11.139Z,14.29
2022-10-03T01:12:11.129Z,14.31
2022-10-03T01:13:11.114Z,14.28
2022-10-03T01:14:11.106Z,14.29
2022-10-03T01:15:11.087Z,14.29
2022-10-03T01:16:11.157Z,14.28
2022-10-03T01:17:11.060Z,14.28
2022-10-03T01:18:11.074Z,14.28
2022-10-03T01:19:11.034Z,14.29
2022-10-03T01:20:11.023Z,14.29
2022-10-03T01:21:11.010Z,14.28
2022-10-03T01:22:10.998Z,14.29
2022-10-03T01:23:10.982Z,14.28
2022-10-03T01:24:10.971Z,14.29
2022-10-03T01:25:10.954Z,14.29
2022-10-03T01:26:10.944Z,14.29
2022-10-03T01:27:10.928Z,14.29
2022-10-03T01:28:10.974Z,14.31
2022-10-03T01:29:10.901Z,14.29
2022-10-03T01:30:10.890Z,14.29
2022-10-03T01:31:10.896Z,14.32
2022-10-03T01:32:10.866Z,14.29
2022-10-03T01:33:10.849Z,14.29
2022-10-03T01:34:10.862Z,14.29
2022-10-03T01:35:10.824Z,14.29
2022-10-03T01:36:10.812Z,14.28
2022-10-03T01:37:10.796Z,14.28
2022-10-03T01:38:10.785Z,14.28
2022-10-03T01:39:10.769Z,14.28
2022-10-03T01:40:10.761Z,14.28
2022-10-03T01:41:10.743Z,14.28
2022-10-03T01:42:10.733Z,14.29
2022-10-03T01:43:10.718Z,14.29
2022-10-03T01:44:10.705Z,14.29
2022-10-03T01:45:10.692Z,14.31
2022-10-03T01:46:10.750Z,14.29
2022-10-03T01:47:10.664Z,14.31
2022-10-03T01:48:10.652Z,14.29
2022-10-03T01:49:10.639Z,14.29
2022-10-03T01:50:10.653Z,14.29
2022-10-03T01:51:10.613Z,14.29
2022-10-03T01:52:10.602Z,14.28
2022-10-03T01:53:10.586Z,14.29
2022-10-03T01:54:10.576Z,14.28
2022-10-03T01:55:10.560Z,14.28
2022-10-03T01:56:10.549Z,14.28
2022-10-03T01:57:10.534Z,14.28
2022-10-03T01:58:10.523Z,14.29
2022-10-03T01:59:10.506Z,14.29
2022-10-03T02:00:10.497Z,14.29
2022-10-03T02:01:10.550Z,14.28
2022-10-03T02:02:10.553Z,14.28
2022-10-03T02:03:10.453Z,14.28
2022-10-03T02:04:10.443Z,14.28
2022-10-03T02:05:10.427Z,14.29
2022-10-03T02:06:10.439Z,14.28
2022-10-03T02:07:10.400Z,14.28
2022-10-03T02:08:10.389Z,14.28
2022-10-03T02:09:10.375Z,14.29
2022-10-03T02:10:10.361Z,14.29
2022-10-03T02:11:10.348Z,14.29
2022-10-03T02:12:10.336Z,14.28
2022-10-03T02:13:10.321Z,14.29
2022-10-03T02:14:10.309Z,14.29
2022-10-03T02:15:10.294Z,14.29
2022-10-03T02:16:10.383Z,14.28
2022-10-03T02:17:10.269Z,14.28
2022-10-03T02:18:10.258Z,14.28
2022-10-03T02:19:10.245Z,14.27
2022-10-03T02:20:10.229Z,14.27
2022-10-03T02:21:10.215Z,14.27
2022-10-03T02:22:10.228Z,14.27
2022-10-03T02:23:10.189Z,14.27
2022-10-03T02:24:10.176Z,14.27
2022-10-03T02:25:10.162Z,14.27
2022-10-03T02:26:10.152Z,14.27
2022-10-03T02:27:10.136Z,14.28
2022-10-03T02:28:10.173Z,14.28
2022-10-03T02:29:10.109Z,14.28
2022-10-03T02:30:10.099Z,14.27
2022-10-03T02:31:10.194Z,14.28
2022-10-03T02:32:10.073Z,14.25
2022-10-03T02:33:10.061Z,14.27
2022-10-03T02:34:10.052Z,14.28
2022-10-03T02:35:10.033Z,14.27
2022-10-03T02:36:10.018Z,14.27
2022-10-03T02:37:10.004Z,14.28
2022-10-03T02:38:10.142Z,14.28
2022-10-03T02:39:09.977Z,14.28
2022-10-03T02:40:09.966Z,14.27
2022-10-03T02:41:09.954Z,14.25
2022-10-03T02:42:09.939Z,14.27
2022-10-03T02:43:09.926Z,14.25
2022-10-03T02:44:09.912Z,14.28
2022-10-03T02:45:09.899Z,14.28
2022-10-03T02:46:09.926Z,14.28
2022-10-03T02:47:09.879Z,14.27
2022-10-03T02:48:30.644Z,14.25
2022-10-03T02:49:10.887Z,14.27
2022-10-03T02:50:09.833Z,14.27
2022-10-03T02:51:09.821Z,14.27
2022-10-03T02:52:09.809Z,14.27
2022-10-03T02:53:09.792Z,14.27
2022-10-03T02:54:09.807Z,14.27
2022-10-03T02:55:09.768Z,14.28
2022-10-03T02:56:09.754Z,14.28
2022-10-03T02:57:09.743Z,14.28
2022-10-03T02:58:09.726Z,14.27
2022-10-03T02:59:09.717Z,14.27
2022-10-03T03:00:09.700Z,14.27
2022-10-03T03:01:09.755Z,14.29
2022-10-03T03:02:09.717Z,14.27
2022-10-03T03:03:09.664Z,14.27
2022-10-03T03:04:09.648Z,14.27
2022-10-03T03:05:09.637Z,14.28
2022-10-03T03:06:09.621Z,14.28
2022-10-03T03:07:09.612Z,14.27
2022-10-03T03:08:09.594Z,14.27
2022-10-03T03:09:09.583Z,14.27
2022-10-03T03:10:09.598Z,14.27
2022-10-03T03:11:09.557Z,14.27
2022-10-03T03:12:09.541Z,14.25
2022-10-03T03:13:09.531Z,14.25
2022-10-03T03:14:09.527Z,14.27
2022-10-03T03:15:09.505Z,14.27
2022-10-03T03:16:09.526Z,14.27
2022-10-03T03:17:09.482Z,14.25
2022-10-03T03:18:09.463Z,14.27
2022-10-03T03:19:09.454Z,14.27
2022-10-03T03:20:09.437Z,14.25
2022-10-03T03:21:09.424Z,14.27
2022-10-03T03:22:09.411Z,14.27
2022-10-03T03:23:09.399Z,14.25
2022-10-03T03:24:09.383Z,14.25
2022-10-03T03:25:09.373Z,14.27
2022-10-03T03:26:09.382Z,14.25
2022-10-03T03:27:09.346Z,14.25
2022-10-03T03:28:09.391Z,14.25
2022-10-03T03:29:09.318Z,14.27
2022-10-03T03:30:09.310Z,14.27
2022-10-03T03:31:09.416Z,14.28
2022-10-03T03:32:09.278Z,14.28
2022-10-03T03:33:09.265Z,14.28
2022-10-03T03:34:09.251Z,14.27
2022-10-03T03:35:09.239Z,14.28
2022-10-03T03:36:09.226Z,14.29
2022-10-03T03:37:09.214Z,14.28
2022-10-03T03:38:09.199Z,14.28
2022-10-03T03:39:09.186Z,14.28
2022-10-03T03:40:09.172Z,14.28
2022-10-03T03:41:09.161Z,14.29
2022-10-03T03:42:09.169Z,14.28
2022-10-03T03:43:09.135Z,14.27
2022-10-03T03:44:09.118Z,14.27
2022-10-03T03:45:09.107Z,14.27
2022-10-03T03:46:09.203Z,14.25
2022-10-03T03:47:09.080Z,14.25
2022-10-03T03:48:09.066Z,14.25
2022-10-03T03:49:09.055Z,14.25
2022-10-03T03:50:09.039Z,14.27
2022-10-03T03:51:09.027Z,14.28
2022-10-03T03:52:09.014Z,14.27
2022-10-03T03:53:09.002Z,14.27
2022-10-03T03:54:08.987Z,14.27
2022-10-03T03:55:08.974Z,14.25
2022-10-03T03:56:08.959Z,14.27
2022-10-03T03:57:08.950Z,14.25
2022-10-03T03:58:08.956Z,14.27
2022-10-03T03:59:08.921Z,14.25
2022-10-03T04:00:08.906Z,14.25
2022-10-03T04:01:08.989Z,14.25
2022-10-03T04:02:08.974Z,14.24
2022-10-03T04:03:08.869Z,14.25
2022-10-03T04:04:08.854Z,14.27
2022-10-03T04:05:08.843Z,14.27
2022-10-03T04:06:08.827Z,14.27
2022-10-03T04:07:08.814Z,14.28
2022-10-03T04:08:08.800Z,14.27
2022-10-03T04:09:08.788Z,14.28
2022-10-03T04:10:08.774Z,14.27
2022-10-03T04:11:08.763Z,14.27
2022-10-03T04:12:08.749Z,14.25
2022-10-03T04:13:08.738Z,14.25
2022-10-03T04:14:08.746Z,14.25
2022-10-03T04:15:08.713Z,14.25
2022-10-03T04:16:08.771Z,14.27
2022-10-03T04:17:08.683Z,14.27
2022-10-03T04:18:08.674Z,14.25
2022-10-03T04:19:08.656Z,14.27
2022-10-03T04:20:08.645Z,14.27
2022-10-03T04:21:08.631Z,14.27
2022-10-03T04:22:08.618Z,14.27
2022-10-03T04:23:08.604Z,14.28
2022-10-03T04:24:08.589Z,14.28
2022-10-03T04:25:08.577Z,14.27
2022-10-03T04:26:08.563Z,14.28
2022-10-03T04:27:08.552Z,14.28
2022-10-03T04:28:08.581Z,14.27
2022-10-03T04:29:08.524Z,14.27
2022-10-03T04:30:08.538Z,14.27
2022-10-03T04:31:08.499Z,14.27
2022-10-03T04:32:08.506Z,14.27
2022-10-03T04:33:08.472Z,14.28
2022-10-03T04:34:08.457Z,14.28
2022-10-03T04:35:08.445Z,14.28
2022-10-03T04:36:08.432Z,14.28
2022-10-03T04:37:08.420Z,14.27
2022-10-03T04:38:08.406Z,14.28
2022-10-03T04:39:08.394Z,14.27
2022-10-03T04:40:08.377Z,14.27
2022-10-03T04:41:08.365Z,14.25
2022-10-03T04:42:08.351Z,14.27
2022-10-03T04:43:08.339Z,14.25
2022-10-03T04:44:08.325Z,14.25
2022-10-03T04:45:08.313Z,14.27
2022-10-03T04:46:08.407Z,14.27
2022-10-03T04:47:08.286Z,14.25
2022-10-03T04:48:08.273Z,14.25
2022-10-03T04:49:08.264Z,14.27
2022-10-03T04:50:08.245Z,14.25
2022-10-03T04:51:08.237Z,14.27
2022-10-03T04:52:08.217Z,14.24
2022-10-03T04:53:08.208Z,14.27
2022-10-03T04:54:08.193Z,14.25
2022-10-03T04:55:08.181Z,14.25
2022-10-03T04:56:08.166Z,14.25
2022-10-03T04:57:08.155Z,14.27
2022-10-03T04:58:08.141Z,14.24
2022-10-03T04:59:08.128Z,14.25
2022-10-03T05:00:08.113Z,14.24
2022-10-03T05:01:08.186Z,14.24
2022-10-03T05:02:08.204Z,14.24
2022-10-03T05:03:08.075Z,14.25
2022-10-03T05:04:08.061Z,14.25
2022-10-03T05:05:08.049Z,14.27
2022-10-03T05:06:08.035Z,14.27
2022-10-03T05:07:08.023Z,14.25
2022-10-03T05:08:08.009Z,14.25
2022-10-03T05:09:07.997Z,14.25
2022-10-03T05:10:12.768Z,14.24
2022-10-03T05:11:07.973Z,14.24
2022-10-03T05:12:07.954Z,14.24
2022-10-03T05:13:07.943Z,14.24
2022-10-03T05:14:07.927Z,14.24
2022-10-03T05:15:07.918Z,14.25
2022-10-03T05:16:07.929Z,14.24
2022-10-03T05:17:07.890Z,14.24
2022-10-03T05:18:07.898Z,14.24
2022-10-03T05:19:07.864Z,14.21
2022-10-03T05:20:07.847Z,14.24
2022-10-03T05:21:07.838Z,14.25
2022-10-03T05:22:07.825Z,14.25
2022-10-03T05:23:07.819Z,14.25
2022-10-03T05:24:07.796Z,14.21
2022-10-03T05:25:07.785Z,14.24
2022-10-03T05:26:39.872Z,14.24
2022-10-03T05:27:09.756Z,14.25
2022-10-03T05:28:07.775Z,14.27
2022-10-03T05:29:07.732Z,14.25
2022-10-03T05:30:07.716Z,14.25
2022-10-03T05:31:07.703Z,14.25
2022-10-03T05:32:07.775Z,14.25
2022-10-03T05:33:08.883Z,14.28
2022-10-03T05:34:07.688Z,14.25
2022-10-03T05:35:07.650Z,14.25
2022-10-03T05:36:07.636Z,14.25
2022-10-03T05:37:07.624Z,14.25
2022-10-03T05:38:07.611Z,14.25
2022-10-03T05:39:07.598Z,14.25
2022-10-03T05:40:07.582Z,14.24
2022-10-03T05:41:07.571Z,14.25
2022-10-03T05:42:22.011Z,14.25
2022-10-03T05:43:08.586Z,14.25
2022-10-03T05:44:07.529Z,14.27
2022-10-03T05:45:07.518Z,14.27
2022-10-03T05:46:07.577Z,14.27
2022-10-03T05:47:07.491Z,14.25
2022-10-03T05:48:07.475Z,14.27
2022-10-03T05:49:07.464Z,14.27
2022-10-03T05:50:11.617Z,14.24
2022-10-03T05:51:07.437Z,14.27
2022-10-03T05:52:07.421Z,14.27
2022-10-03T05:53:07.409Z,14.25
2022-10-03T05:54:07.401Z,14.25
2022-10-03T05:55:07.384Z,14.25
2022-10-03T05:56:07.368Z,14.25
2022-10-03T05:57:07.363Z,14.25
2022-10-03T05:58:07.342Z,14.25
2022-10-03T05:59:07.334Z,14.25
2022-10-03T06:00:07.403Z,14.27
2022-10-03T06:01:07.308Z,14.24
2022-10-03T06:02:07.345Z,14.27
2022-10-03T06:03:07.477Z,14.25
2022-10-03T06:04:07.280Z,14.24
2022-10-03T06:05:07.249Z,14.25
2022-10-03T06:06:07.258Z,14.24
2022-10-03T06:07:07.227Z,14.25
2022-10-03T06:08:07.208Z,14.25
2022-10-03T06:09:07.199Z,14.25
2022-10-03T06:10:07.182Z,14.24
2022-10-03T06:11:07.170Z,14.29
2022-10-03T06:12:07.154Z,14.31
2022-10-03T06:13:07.143Z,14.34
2022-10-03T06:14:07.130Z,14.35
2022-10-03T06:15:07.118Z,14.37
2022-10-03T06:16:07.262Z,14.39
2022-10-03T06:17:07.091Z,14.38
2022-10-03T06:18:07.075Z,14.37
2022-10-03T06:19:07.064Z,14.37
2022-10-03T06:20:07.052Z,14.37
2022-10-03T06:21:07.037Z,14.35
2022-10-03T06:22:07.048Z,14.34
2022-10-03T06:23:07.011Z,14.34
2022-10-03T06:24:06.997Z,14.34
2022-10-03T06:25:06.986Z,14.32
2022-10-03T06:26:06.974Z,14.34
2022-10-03T06:27:06.959Z,14.34
2022-10-03T06:28:07.046Z,14.31
2022-10-03T06:29:06.932Z,14.31
2022-10-03T06:30:06.917Z,14.31
2022-10-03T06:31:06.962Z,14.29
2022-10-03T06:32:06.892Z,14.31
2022-10-03T06:33:06.878Z,14.31
2022-10-03T06:34:06.865Z,14.29
2022-10-03T06:35:06.853Z,14.29
2022-10-03T06:36:06.838Z,14.29
2022-10-03T06:37:06.826Z,14.29
2022-10-03T06:38:06.836Z,14.29
2022-10-03T06:39:06.800Z,14.29
2022-10-03T06:40:09.887Z,14.31
2022-10-03T06:41:06.849Z,14.29
2022-10-03T06:42:06.757Z,14.29
2022-10-03T06:43:06.746Z,14.31
2022-10-03T06:44:06.731Z,14.34
2022-10-03T06:45:06.720Z,14.34
2022-10-03T06:46:06.772Z,14.34
2022-10-03T06:47:06.693Z,14.34
2022-10-03T06:48:06.678Z,14.32
2022-10-03T06:49:06.665Z,14.32
2022-10-03T06:50:06.655Z,14.35
2022-10-03T06:51:06.639Z,14.34
2022-10-03T06:52:06.624Z,14.35
2022-10-03T06:53:06.612Z,14.35
2022-10-03T06:54:06.632Z,14.35
2022-10-03T06:55:06.585Z,14.35
2022-10-03T06:56:06.572Z,14.34
2022-10-03T06:57:06.561Z,14.34
2022-10-03T06:58:06.546Z,14.32
2022-10-03T06:59:06.534Z,14.32
2022-10-03T07:00:06.516Z,14.32
2022-10-03T07:01:06.563Z,14.32
2022-10-03T07:02:06.532Z,14.32
2022-10-03T07:03:06.474Z,14.34
2022-10-03T07:04:06.459Z,14.35
2022-10-03T07:05:06.447Z,14.35
2022-10-03T07:06:06.428Z,14.34
2022-10-03T07:07:06.418Z,14.34
2022-10-03T07:08:06.403Z,14.35
2022-10-03T07:09:06.398Z,14.35
2022-10-03T07:10:06.405Z,14.35
2022-10-03T07:11:06.370Z,14.35
2022-10-03T07:12:09.627Z,14.37
2022-10-03T07:13:06.342Z,14.37
2022-10-03T07:14:06.328Z,14.37
2022-10-03T07:15:06.367Z,14.35
2022-10-03T07:16:25.657Z,14.35
2022-10-03T07:17:07.477Z,14.35
2022-10-03T07:18:06.311Z,14.35
2022-10-03T07:19:06.258Z,14.35
2022-10-03T07:20:06.247Z,14.35
2022-10-03T07:21:06.242Z,14.35
2022-10-03T07:22:06.219Z,14.37
2022-10-03T07:23:06.258Z,14.37
2022-10-03T07:24:06.195Z,14.38
2022-10-03T07:25:06.179Z,14.39
2022-10-03T07:26:06.192Z,14.37
2022-10-03T07:27:06.151Z,14.39
2022-10-03T07:28:06.175Z,14.37
2022-10-03T07:29:06.125Z,14.38
2022-10-03T07:30:06.113Z,14.38
2022-10-03T07:31:06.203Z,14.35
2022-10-03T07:32:06.086Z,14.37
2022-10-03T07:33:06.070Z,14.38
2022-10-03T07:34:06.060Z,14.35
2022-10-03T07:35:06.048Z,14.37
2022-10-03T07:36:06.033Z,14.37
2022-10-03T07:37:06.020Z,14.37
2022-10-03T07:38:06.007Z,14.37
2022-10-03T07:39:05.992Z,14.38
2022-10-03T07:40:05.981Z,14.38
2022-10-03T07:41:05.966Z,14.39
2022-10-03T07:42:05.976Z,14.38
2022-10-03T07:43:05.938Z,14.37
2022-10-03T07:44:05.926Z,14.39
2022-10-03T07:45:05.912Z,14.38
2022-10-03T07:46:06.002Z,14.38
2022-10-03T07:47:05.885Z,14.38
2022-10-03T07:48:05.875Z,14.38
2022-10-03T07:49:05.861Z,14.38
2022-10-03T07:50:05.847Z,14.39
2022-10-03T07:51:05.833Z,14.37
2022-10-03T07:52:05.821Z,14.38
2022-10-03T07:53:05.807Z,14.38
2022-10-03T07:54:05.797Z,14.38
2022-10-03T07:55:05.781Z,14.38
2022-10-03T07:56:09.312Z,14.38
2022-10-03T07:57:05.755Z,14.37
2022-10-03T07:58:05.765Z,14.38
2022-10-03T07:59:05.725Z,14.38
2022-10-03T08:00:05.715Z,14.37
2022-10-03T08:01:05.700Z,14.37
2022-10-03T08:02:05.686Z,14.35
2022-10-03T08:03:05.827Z,14.38
2022-10-03T08:04:05.767Z,14.39
2022-10-03T08:05:05.647Z,14.38
2022-10-03T08:06:05.635Z,14.39
2022-10-03T08:07:05.623Z,14.42
2022-10-03T08:08:05.609Z,14.39
2022-10-03T08:09:05.594Z,14.42
2022-10-03T08:10:05.587Z,14.39
2022-10-03T08:11:05.569Z,14.39
2022-10-03T08:12:05.556Z,14.43
2022-10-03T08:13:05.540Z,14.42
2022-10-03T08:14:05.551Z,14.42
2022-10-03T08:15:05.520Z,14.43
2022-10-03T08:16:05.583Z,14.42
2022-10-03T08:17:05.486Z,14.42
2022-10-03T08:18:05.477Z,14.42
2022-10-03T08:19:10.368Z,14.42
2022-10-03T08:20:05.450Z,14.43
2022-10-03T08:21:05.433Z,14.43
2022-10-03T08:22:05.424Z,14.44
2022-10-03T08:23:05.408Z,14.44
2022-10-03T08:24:05.397Z,14.44
2022-10-03T08:25:05.381Z,14.44
2022-10-03T08:26:05.368Z,14.44
2022-10-03T08:27:05.360Z,14.44
2022-10-03T08:28:05.441Z,14.44
2022-10-03T08:29:05.327Z,14.46
2022-10-03T08:30:05.352Z,14.46
2022-10-03T08:31:05.354Z,14.46
2022-10-03T08:32:05.289Z,14.46
2022-10-03T08:33:05.276Z,14.49
2022-10-03T08:34:05.264Z,14.47
2022-10-03T08:35:05.248Z,14.47
2022-10-03T08:36:05.237Z,14.49
2022-10-03T08:37:05.220Z,14.49
2022-10-03T08:38:05.211Z,14.50
2022-10-03T08:39:05.194Z,14.49
2022-10-03T08:40:05.203Z,14.47
2022-10-03T08:41:05.168Z,14.47
2022-10-03T08:42:05.157Z,14.49
2022-10-03T08:43:05.136Z,14.47
2022-10-03T08:44:05.125Z,14.47
2022-10-03T08:45:05.118Z,14.47
2022-10-03T08:46:05.176Z,14.46
2022-10-03T08:47:05.088Z,14.46
2022-10-03T08:48:05.079Z,14.47
2022-10-03T08:49:05.062Z,14.47
2022-10-03T08:50:05.819Z,14.49
2022-10-03T08:51:05.038Z,14.49
2022-10-03T08:52:05.025Z,14.50
2022-10-03T08:53:05.015Z,14.50
2022-10-03T08:54:04.999Z,14.50
2022-10-03T08:55:04.982Z,14.52
2022-10-03T08:56:04.972Z,14.50
2022-10-03T08:57:04.956Z,14.52
2022-10-03T08:58:04.944Z,14.50
2022-10-03T08:59:04.928Z,14.52
2022-10-03T09:00:04.917Z,14.52
2022-10-03T09:01:04.904Z,14.50
2022-10-03T09:02:05.035Z,14.52
2022-10-03T09:03:32.192Z,14.49
2022-10-03T09:04:05.902Z,14.52
2022-10-03T09:05:04.908Z,14.52
2022-10-03T09:06:04.839Z,14.52
2022-10-03T09:07:17.054Z,14.53
2022-10-03T09:08:05.854Z,14.52
2022-10-03T09:09:04.799Z,14.52
2022-10-03T09:10:04.786Z,14.52
2022-10-03T09:11:04.772Z,14.52
2022-10-03T09:12:04.760Z,14.52
2022-10-03T09:13:04.745Z,14.52
2022-10-03T09:14:04.740Z,14.53
2022-10-03T09:15:04.761Z,14.52
2022-10-03T09:16:04.825Z,14.53
2022-10-03T09:17:04.692Z,14.52
2022-10-03T09:18:04.709Z,14.52
2022-10-03T09:19:04.666Z,14.52
2022-10-03T09:20:04.656Z,14.52
2022-10-03T09:21:04.639Z,14.52
2022-10-03T09:22:04.633Z,14.52
2022-10-03T09:23:04.618Z,14.50
2022-10-03T09:24:04.600Z,14.53
2022-10-03T09:25:04.585Z,14.53
2022-10-03T09:26:04.578Z,14.54
2022-10-03T09:27:04.561Z,14.53
2022-10-03T09:28:04.618Z,14.53
2022-10-03T09:29:04.538Z,14.54
2022-10-03T09:30:04.522Z,14.54
2022-10-03T09:31:04.564Z,14.56
2022-10-03T09:32:04.493Z,14.56
2022-10-03T09:33:04.480Z,14.54
2022-10-03T09:34:04.504Z,14.56
2022-10-03T09:35:07.209Z,14.56
2022-10-03T09:36:04.444Z,14.56
2022-10-03T09:37:04.426Z,14.56
2022-10-03T09:38:04.417Z,14.57
2022-10-03T09:39:04.402Z,14.57
2022-10-03T09:40:04.391Z,14.60
2022-10-03T09:41:04.375Z,14.60
2022-10-03T09:42:04.363Z,14.60
2022-10-03T09:43:04.349Z,14.61
2022-10-03T09:44:04.338Z,14.61
2022-10-03T09:45:04.323Z,14.61
2022-10-03T09:46:04.312Z,14.61
2022-10-03T09:47:04.353Z,14.61
2022-10-03T09:48:04.284Z,14.61
2022-10-03T09:49:04.270Z,14.61
2022-10-03T09:50:04.283Z,14.62
2022-10-03T09:51:04.242Z,14.61
2022-10-03T09:52:08.758Z,14.61
2022-10-03T09:53:04.224Z,14.61
2022-10-03T09:54:04.205Z,14.61
2022-10-03T09:55:04.189Z,14.61
2022-10-03T09:56:04.178Z,14.64
2022-10-03T09:57:04.166Z,14.64
2022-10-03T09:58:04.153Z,14.64
2022-10-03T09:59:04.139Z,14.64
2022-10-03T10:00:04.128Z,14.62
2022-10-03T10:01:04.219Z,14.64
2022-10-03T10:02:04.097Z,14.64
2022-10-03T10:03:04.084Z,14.64
2022-10-03T10:04:04.255Z,14.64
2022-10-03T10:05:04.058Z,14.65
2022-10-03T10:06:04.070Z,14.65
2022-10-03T10:07:04.031Z,14.67
2022-10-03T10:08:04.020Z,14.67
2022-10-03T10:09:04.005Z,14.67
2022-10-03T10:10:03.994Z,14.68
2022-10-03T10:11:03.991Z,14.67
2022-10-03T10:12:03.967Z,14.67
2022-10-03T10:13:03.948Z,14.68
2022-10-03T10:14:07.774Z,14.68
2022-10-03T10:15:03.926Z,14.68
2022-10-03T10:16:03.988Z,14.68
2022-10-03T10:17:03.899Z,14.69
2022-10-03T10:18:03.901Z,14.68
2022-10-03T10:19:03.873Z,14.68
2022-10-03T10:20:03.864Z,14.69
2022-10-03T10:21:03.847Z,14.68
2022-10-03T10:22:03.858Z,14.68
2022-10-03T10:23:03.820Z,14.68
2022-10-03T10:24:03.809Z,14.68
2022-10-03T10:25:03.793Z,14.68
2022-10-03T10:26:03.782Z,14.68
2022-10-03T10:27:03.769Z,14.68
2022-10-03T10:28:03.855Z,14.67
2022-10-03T10:29:03.741Z,14.67
2022-10-03T10:30:03.730Z,14.68
2022-10-03T10:31:03.786Z,14.68
2022-10-03T10:32:03.702Z,14.68
2022-10-03T10:33:03.689Z,14.69
2022-10-03T10:34:03.675Z,14.71
2022-10-03T10:35:03.661Z,14.71
2022-10-03T10:36:03.649Z,14.71
2022-10-03T10:37:03.634Z,14.71
2022-10-03T10:38:03.648Z,14.72
2022-10-03T10:39:03.608Z,14.72
2022-10-03T10:40:03.602Z,14.72
2022-10-03T10:41:03.894Z,14.74
2022-10-03T10:42:03.571Z,14.72
2022-10-03T10:43:03.556Z,14.74
2022-10-03T10:44:03.548Z,14.74
2022-10-03T10:45:03.531Z,14.77
2022-10-03T10:46:03.517Z,14.77
2022-10-03T10:47:03.567Z,14.79
2022-10-03T10:48:03.490Z,14.85
2022-10-03T10:49:04.111Z,14.85
2022-10-03T10:50:03.465Z,14.83
2022-10-03T10:51:03.449Z,14.80
2022-10-03T10:52:03.438Z,14.79
2022-10-03T10:53:03.424Z,14.79
2022-10-03T10:54:03.477Z,14.79
2022-10-03T10:55:03.397Z,14.79
2022-10-03T10:56:03.385Z,14.79
2022-10-03T10:57:03.371Z,14.79
2022-10-03T10:58:03.362Z,14.77
2022-10-03T10:59:03.344Z,14.77
2022-10-03T11:00:03.339Z,14.75
2022-10-03T11:01:03.354Z,14.77
2022-10-03T11:02:03.303Z,14.80
2022-10-03T11:03:03.295Z,14.80
2022-10-03T11:04:03.288Z,14.79
2022-10-03T11:05:03.392Z,14.77
2022-10-03T11:06:03.262Z,14.80
2022-10-03T11:07:03.252Z,14.79
2022-10-03T11:08:03.221Z,14.79
2022-10-03T11:09:03.218Z,14.79
2022-10-03T11:10:03.227Z,14.80
2022-10-03T11:11:03.182Z,14.79
2022-10-03T11:12:03.173Z,14.79
2022-10-03T11:13:03.157Z,14.79
2022-10-03T11:14:03.145Z,14.79
2022-10-03T11:15:03.131Z,14.79
2022-10-03T11:16:03.221Z,14.79
2022-10-03T11:17:03.105Z,14.75
2022-10-03T11:18:03.092Z,14.77
2022-10-03T11:19:03.079Z,14.77
2022-10-03T11:20:03.065Z,14.79
2022-10-03T11:21:03.054Z,14.79
2022-10-03T11:22:03.041Z,14.79
2022-10-03T11:23:04.866Z,14.77
2022-10-03T11:24:03.013Z,14.80
2022-10-03T11:25:03.000Z,14.82
2022-10-03T11:26:03.105Z,14.80
2022-10-03T11:27:02.976Z,14.80
2022-10-03T11:28:03.053Z,14.80
2022-10-03T11:29:02.949Z,14.80
2022-10-03T11:30:02.933Z,14.79
2022-10-03T11:31:02.966Z,14.77
2022-10-03T11:32:02.908Z,14.79
2022-10-03T11:33:02.903Z,14.77
2022-10-03T11:34:02.880Z,14.77
2022-10-03T11:35:02.868Z,14.77
2022-10-03T11:36:02.854Z,14.77
2022-10-03T11:37:02.843Z,14.77
2022-10-03T11:38:02.827Z,14.80
2022-10-03T11:39:02.816Z,14.80
2022-10-03T11:40:02.800Z,14.80
2022-10-03T11:41:02.789Z,14.80
2022-10-03T11:42:02.801Z,14.80
2022-10-03T11:43:02.764Z,14.82
2022-10-03T11:44:02.747Z,14.83
2022-10-03T11:45:02.735Z,14.82
2022-10-03T11:46:02.756Z,14.80
2022-10-03T11:47:02.715Z,14.82
2022-10-03T11:48:02.693Z,14.82
2022-10-03T11:49:02.684Z,14.83
2022-10-03T11:50:02.670Z,14.83
2022-10-03T11:51:02.657Z,14.85
2022-10-03T11:52:02.643Z,14.83
2022-10-03T11:53:02.634Z,14.83
2022-10-03T11:54:19.548Z,14.83
2022-10-03T11:55:03.641Z,14.82
2022-10-03T11:56:02.589Z,14.82
2022-10-03T11:57:02.580Z,14.82
2022-10-03T11:58:02.588Z,14.82
2022-10-03T11:59:02.551Z,14.82
2022-10-03T12:00:02.538Z,14.80
2022-10-03T12:01:02.525Z,14.82
2022-10-03T12:02:02.603Z,14.80
2022-10-03T12:03:02.658Z,14.80
2022-10-03T12:04:02.483Z,14.82
2022-10-03T12:05:02.474Z,14.82
2022-10-03T12:06:02.458Z,14.82
2022-10-03T12:07:02.446Z,14.83
2022-10-03T12:08:02.439Z,14.82
2022-10-03T12:09:02.421Z,14.80
2022-10-03T12:10:02.434Z,14.80
2022-10-03T12:11:02.393Z,14.82
2022-10-03T12:12:02.378Z,14.82
2022-10-03T12:13:02.366Z,14.79
2022-10-03T12:14:05.160Z,14.80
2022-10-03T12:15:02.340Z,14.77
2022-10-03T12:16:02.393Z,14.79
2022-10-03T12:17:02.314Z,14.79
2022-10-03T12:18:02.300Z,14.79
2022-10-03T12:19:02.290Z,14.77
2022-10-03T12:20:02.273Z,14.80
2022-10-03T12:21:02.261Z,14.79
2022-10-03T12:22:02.247Z,14.79
2022-10-03T12:23:02.235Z,14.79
2022-10-03T12:24:02.222Z,14.79
2022-10-03T12:25:02.211Z,14.77
2022-10-03T12:26:02.194Z,14.75
2022-10-03T12:27:02.183Z,14.77
2022-10-03T12:28:02.247Z,14.75
2022-10-03T12:29:02.156Z,14.75
2022-10-03T12:30:02.175Z,14.75
2022-10-03T12:31:02.128Z,14.74
2022-10-03T12:32:02.166Z,14.74
2022-10-03T12:33:02.103Z,14.72
2022-10-03T12:34:02.089Z,14.74
2022-10-03T12:35:02.078Z,14.72
2022-10-03T12:36:02.061Z,14.74
2022-10-03T12:37:02.049Z,14.72
2022-10-03T12:38:02.034Z,14.74
2022-10-03T12:39:02.023Z,14.74
2022-10-03T12:40:02.008Z,14.75
2022-10-03T12:41:02.002Z,14.75
2022-10-03T12:42:01.982Z,14.75
2022-10-03T12:43:01.971Z,14.77
2022-10-03T12:44:01.956Z,14.80
2022-10-03T12:45:01.943Z,14.79
2022-10-03T12:46:02.076Z,14.77
2022-10-03T12:47:03.292Z,14.79
2022-10-03T12:48:01.903Z,14.79
2022-10-03T12:49:01.887Z,14.79
2022-10-03T12:50:01.878Z,14.80
2022-10-03T12:51:01.874Z,14.79
2022-10-03T12:52:01.849Z,14.79